createdAt,value
2023-10-23T00:00:09.962Z,100.00
2023-10-23T00:02:41.223Z,100.00
2023-10-23T00:05:11.968Z,100.00
2023-10-23T00:07:40.664Z,100.00
2023-10-23T00:10:09.560Z,100.00
2023-10-23T00:12:37.846Z,100.00
2023-10-23T00:15:06.766Z,100.00
2023-10-23T00:17:35.282Z,100.00
2023-10-23T00:20:06.186Z,100.00
2023-10-23T00:22:34.347Z,100.00
2023-10-23T00:25:02.889Z,100.00
2023-10-23T00:27:30.969Z,100.00
2023-10-23T00:30:02.889Z,100.00
2023-10-23T00:32:32.380Z,100.00
2023-10-23T00:35:01.356Z,100.00
2023-10-23T00:37:30.159Z,100.00
2023-10-23T00:39:58.094Z,100.00
2023-10-23T00:42:26.529Z,100.00
2023-10-23T00:44:54.922Z,100.00
2023-10-23T00:47:23.767Z,100.00
2023-10-23T00:49:52.314Z,100.00
2023-10-23T00:52:20.873Z,100.00
2023-10-23T00:54:49.730Z,100.00
2023-10-23T00:57:17.530Z,100.00
2023-10-23T00:59:46.038Z,100.00
2023-10-23T01:02:14.542Z,100.00
2023-10-23T01:04:43.097Z,100.00
2023-10-23T01:07:11.869Z,100.00
2023-10-23T01:09:40.471Z,100.00
2023-10-23T01:12:08.525Z,100.00
2023-10-23T01:14:36.983Z,100.00
2023-10-23T01:17:05.756Z,100.00
2023-10-23T01:19:33.997Z,100.00
2023-10-23T01:22:02.035Z,100.00
2023-10-23T01:24:32.263Z,100.00
2023-10-23T01:27:00.363Z,100.00
2023-10-23T01:29:28.676Z,100.00
2023-10-23T01:31:56.814Z,100.00
2023-10-23T01:34:24.558Z,100.00
2023-10-23T01:36:52.828Z,100.00
2023-10-23T01:39:21.172Z,100.00
2023-10-23T01:41:58.225Z,100.00
2023-10-23T01:44:31.820Z,100.00
2023-10-23T01:47:04.800Z,100.00
2023-10-23T01:49:32.909Z,100.00
2023-10-23T01:52:04.153Z,100.00
2023-10-23T01:54:35.036Z,100.00
2023-10-23T01:57:04.920Z,100.00
2023-10-23T01:59:33.448Z,100.00
2023-10-23T02:02:01.611Z,100.00
2023-10-23T02:04:30.392Z,100.00
2023-10-23T02:07:01.251Z,100.00
2023-10-23T02:09:29.916Z,100.00
2023-10-23T02:12:00.231Z,100.00
2023-10-23T02:14:28.654Z,100.00
2023-10-23T02:16:56.996Z,100.00
2023-10-23T02:19:26.178Z,100.00
2023-10-23T02:21:54.448Z,100.00
2023-10-23T02:24:23.194Z,100.00
2023-10-23T02:26:53.453Z,100.00
2023-10-23T02:29:22.395Z,100.00
2023-10-23T02:31:50.829Z,100.00
2023-10-23T02:34:19.115Z,100.00
2023-10-23T02:36:47.717Z,100.00
2023-10-23T02:39:16.038Z,100.00
2023-10-23T02:41:44.628Z,100.00
2023-10-23T02:44:12.899Z,100.00
2023-10-23T02:46:42.634Z,100.00
2023-10-23T02:49:33.473Z,100.00
2023-10-23T02:52:01.418Z,100.00
2023-10-23T02:54:30.956Z,100.00
2023-10-23T02:56:59.365Z,100.00
2023-10-23T02:59:27.608Z,100.00
2023-10-23T03:01:55.587Z,100.00
2023-10-23T03:04:23.632Z,100.00
2023-10-23T03:06:51.788Z,100.00
2023-10-23T03:09:19.795Z,100.00
2023-10-23T03:11:47.922Z,100.00
2023-10-23T03:14:16.353Z,100.00
2023-10-23T03:16:44.624Z,100.00
2023-10-23T03:19:12.892Z,100.00
2023-10-23T03:21:41.182Z,100.00
2023-10-23T03:24:09.984Z,100.00
2023-10-23T03:26:38.043Z,100.00
2023-10-23T03:29:06.413Z,100.00
2023-10-23T03:31:34.466Z,100.00
2023-10-23T03:34:03.164Z,100.00
2023-10-23T03:36:31.405Z,100.00
2023-10-23T03:38:59.849Z,100.00
2023-10-23T03:41:28.019Z,100.00
2023-10-23T03:43:56.210Z,100.00
2023-10-23T03:46:24.506Z,100.00
2023-10-23T03:48:53.735Z,100.00
2023-10-23T03:51:22.227Z,100.00
2023-10-23T03:53:50.308Z,100.00
2023-10-23T03:56:18.456Z,100.00
2023-10-23T03:58:46.704Z,100.00
2023-10-23T04:01:14.947Z,100.00
2023-10-23T04:03:42.947Z,100.00
2023-10-23T04:06:10.958Z,100.00
2023-10-23T04:08:39.099Z,100.00
2023-10-23T04:11:07.192Z,100.00
2023-10-23T04:13:36.447Z,100.00
2023-10-23T04:16:04.839Z,100.00
2023-10-23T04:18:33.119Z,100.00
2023-10-23T04:21:11.977Z,100.00
2023-10-23T04:23:41.244Z,100.00
2023-10-23T04:26:09.839Z,100.00
2023-10-23T04:28:38.665Z,100.00
2023-10-23T04:31:06.898Z,100.00
2023-10-23T04:33:34.822Z,100.00
2023-10-23T04:36:03.276Z,100.00
2023-10-23T04:38:33.120Z,100.00
2023-10-23T04:41:01.326Z,100.00
2023-10-23T04:43:29.686Z,100.00
2023-10-23T04:46:00.962Z,100.00
2023-10-23T04:48:29.394Z,100.00
2023-10-23T04:51:05.000Z,100.00
2023-10-23T04:53:33.257Z,100.00
2023-10-23T04:56:01.913Z,100.00
2023-10-23T04:58:31.364Z,100.00
2023-10-23T05:00:59.951Z,100.00
2023-10-23T05:03:28.227Z,100.00
2023-10-23T05:05:56.638Z,100.00
2023-10-23T05:08:24.793Z,100.00
2023-10-23T05:10:52.797Z,100.00
2023-10-23T05:13:21.077Z,100.00
2023-10-23T05:15:49.235Z,100.00
2023-10-23T05:18:17.416Z,100.00
2023-10-23T05:20:45.463Z,100.00
2023-10-23T05:23:13.251Z,100.00
2023-10-23T05:25:41.254Z,100.00
2023-10-23T05:28:09.173Z,100.00
2023-10-23T05:30:37.125Z,100.00
2023-10-23T05:33:05.044Z,100.00
2023-10-23T05:35:33.257Z,100.00
2023-10-23T05:38:01.132Z,100.00
2023-10-23T05:40:29.388Z,100.00
2023-10-23T05:42:57.687Z,100.00
2023-10-23T05:45:26.021Z,100.00
2023-10-23T05:47:54.222Z,100.00
2023-10-23T05:50:22.431Z,100.00
2023-10-23T05:52:50.501Z,100.00
2023-10-23T05:55:20.084Z,100.00
2023-10-23T05:57:48.453Z,100.00
2023-10-23T06:00:16.938Z,100.00
2023-10-23T06:02:45.065Z,100.00
2023-10-23T06:05:14.337Z,100.00
2023-10-23T06:07:42.876Z,100.00
2023-10-23T06:10:11.230Z,100.00
2023-10-23T06:12:39.319Z,100.00
2023-10-23T06:15:07.615Z,100.00
2023-10-23T06:17:35.732Z,100.00
2023-10-23T06:20:04.433Z,100.00
2023-10-23T06:22:32.719Z,100.00
2023-10-23T06:25:00.998Z,100.00
2023-10-23T06:27:28.808Z,100.00
2023-10-23T06:29:56.776Z,100.00
2023-10-23T06:32:27.448Z,100.00
2023-10-23T06:34:56.296Z,100.00
2023-10-23T06:37:24.584Z,100.00
2023-10-23T06:39:52.105Z,100.00
2023-10-23T06:42:20.027Z,100.00
2023-10-23T06:44:48.276Z,100.00
2023-10-23T06:47:17.287Z,100.00
2023-10-23T06:49:48.392Z,100.00
2023-10-23T06:52:16.476Z,100.00
2023-10-23T06:54:44.590Z,100.00
2023-10-23T06:57:12.714Z,100.00
2023-10-23T06:59:41.155Z,100.00
2023-10-23T07:02:10.623Z,100.00
2023-10-23T07:04:38.724Z,100.00
2023-10-23T07:07:17.874Z,100.00
2023-10-23T07:09:50.439Z,100.00
2023-10-23T07:12:18.326Z,100.00
2023-10-23T07:14:46.311Z,100.00
2023-10-23T07:17:14.279Z,100.00
2023-10-23T07:19:42.563Z,100.00
2023-10-23T07:22:10.341Z,100.00
2023-10-23T07:24:40.827Z,100.00
2023-10-23T07:27:13.340Z,100.00
2023-10-23T07:29:41.723Z,100.00
2023-10-23T07:32:10.125Z,100.00
2023-10-23T07:34:39.076Z,100.00
2023-10-23T07:37:07.365Z,100.00
2023-10-23T07:39:36.507Z,100.00
2023-10-23T07:42:04.857Z,100.00
2023-10-23T07:44:33.110Z,100.00
2023-10-23T07:47:01.308Z,100.00
2023-10-23T07:49:29.433Z,100.00
2023-10-23T07:51:57.561Z,100.00
2023-10-23T07:54:25.502Z,100.00
2023-10-23T07:56:57.199Z,100.00
2023-10-23T07:59:25.545Z,100.00
2023-10-23T08:01:54.346Z,100.00
2023-10-23T08:04:22.525Z,100.00
2023-10-23T08:06:50.869Z,100.00
2023-10-23T08:09:19.869Z,100.00
2023-10-23T08:11:47.590Z,100.00
2023-10-23T08:14:16.284Z,100.00
2023-10-23T08:16:44.589Z,100.00
2023-10-23T08:19:14.262Z,100.00
2023-10-23T08:21:42.436Z,100.00
2023-10-23T08:24:11.125Z,100.00
2023-10-23T08:26:40.736Z,100.00
2023-10-23T08:29:08.982Z,100.00
2023-10-23T08:31:40.477Z,100.00
2023-10-23T08:34:09.724Z,100.00
2023-10-23T08:36:38.518Z,100.00
2023-10-23T08:39:06.751Z,100.00
2023-10-23T08:41:37.139Z,100.00
2023-10-23T08:44:06.680Z,100.00
2023-10-23T08:46:35.562Z,100.00
2023-10-23T08:49:04.345Z,100.00
2023-10-23T08:51:33.169Z,100.00
2023-10-23T08:54:15.810Z,100.00
2023-10-23T08:56:45.446Z,100.00
2023-10-23T08:59:15.797Z,100.00
2023-10-23T09:01:44.352Z,100.00
2023-10-23T09:04:29.995Z,100.00
2023-10-23T09:07:00.887Z,100.00
2023-10-23T09:09:30.203Z,100.00
2023-10-23T09:11:59.236Z,100.00
2023-10-23T09:14:28.905Z,100.00
2023-10-23T09:16:58.143Z,100.00
2023-10-23T09:19:35.863Z,100.00
2023-10-23T09:22:05.598Z,100.00
2023-10-23T09:24:34.054Z,100.00
2023-10-23T09:27:01.985Z,100.00
2023-10-23T09:29:30.546Z,100.00
2023-10-23T09:32:00.481Z,100.00
2023-10-23T09:34:30.626Z,100.00
2023-10-23T09:36:59.175Z,100.00
2023-10-23T09:39:27.534Z,100.00
2023-10-23T09:41:55.157Z,100.00
2023-10-23T09:44:25.946Z,100.00
2023-10-23T09:46:55.673Z,100.00
2023-10-23T09:49:28.411Z,100.00
2023-10-23T09:51:59.408Z,100.00
2023-10-23T09:54:27.357Z,100.00
2023-10-23T09:56:55.791Z,100.00
2023-10-23T09:59:35.870Z,100.00
2023-10-23T10:02:07.720Z,100.00
2023-10-23T10:04:45.015Z,100.00
2023-10-23T10:07:18.582Z,100.00
2023-10-23T10:09:47.052Z,100.00
2023-10-23T10:12:15.371Z,100.00
2023-10-23T10:14:44.414Z,100.00
2023-10-23T10:17:16.233Z,100.00
2023-10-23T10:19:44.667Z,100.00
2023-10-23T10:22:13.219Z,100.00
2023-10-23T10:24:41.246Z,100.00
2023-10-23T10:27:10.127Z,97.59
2023-10-23T10:29:38.452Z,93.56
2023-10-23T10:32:13.513Z,90.69
2023-10-23T10:34:55.788Z,89.40
2023-10-23T10:37:31.880Z,90.00
2023-10-23T10:40:00.141Z,90.74
2023-10-23T10:42:30.948Z,91.12
2023-10-23T10:45:01.355Z,88.54
2023-10-23T10:47:53.997Z,82.14
2023-10-23T10:50:42.623Z,79.62
2023-10-23T10:53:15.418Z,79.18
2023-10-23T10:55:46.636Z,77.50
2023-10-23T10:58:14.769Z,76.44
2023-10-23T11:00:43.123Z,75.91
2023-10-23T11:03:11.561Z,75.16
2023-10-23T11:05:46.082Z,76.26
2023-10-23T11:08:14.594Z,76.15
2023-10-23T11:10:43.234Z,73.99
2023-10-23T11:13:18.017Z,71.92
2023-10-23T11:15:47.460Z,72.35
2023-10-23T11:18:18.278Z,73.60
2023-10-23T11:20:46.625Z,73.95
2023-10-23T11:23:18.236Z,71.90
2023-10-23T11:25:56.010Z,62.81
2023-10-23T11:28:25.075Z,59.08
2023-10-23T11:30:58.034Z,59.46
2023-10-23T11:33:26.137Z,60.02
2023-10-23T11:35:55.006Z,60.42
2023-10-23T11:38:25.621Z,61.49
2023-10-23T11:40:56.378Z,60.36
2023-10-23T11:43:24.655Z,59.80
2023-10-23T11:45:52.962Z,59.66
2023-10-23T11:48:20.907Z,59.42
2023-10-23T11:50:49.356Z,58.83
2023-10-23T11:53:18.410Z,58.07
2023-10-23T11:55:47.216Z,56.16
2023-10-23T11:58:15.517Z,56.24
2023-10-23T12:00:43.832Z,56.18
2023-10-23T12:03:11.933Z,53.79
2023-10-23T12:05:41.234Z,52.93
2023-10-23T12:08:17.128Z,53.14
2023-10-23T12:10:45.507Z,52.42
2023-10-23T12:13:13.238Z,52.28
2023-10-23T12:15:41.333Z,52.51
2023-10-23T12:18:09.212Z,51.46
2023-10-23T12:20:37.422Z,50.11
2023-10-23T12:23:05.708Z,49.05
2023-10-23T12:25:34.133Z,48.26
2023-10-23T12:28:02.463Z,48.79
2023-10-23T12:30:30.939Z,49.63
2023-10-23T12:33:17.523Z,50.55
2023-10-23T12:35:51.022Z,50.93
2023-10-23T12:38:19.549Z,51.62
2023-10-23T12:40:50.130Z,51.65
2023-10-23T12:43:18.396Z,50.79
2023-10-23T12:45:48.200Z,50.44
2023-10-23T12:48:16.554Z,51.02
2023-10-23T12:50:45.066Z,50.95
2023-10-23T12:53:13.609Z,51.25
2023-10-23T12:55:42.974Z,51.45
2023-10-23T12:58:11.396Z,51.27
2023-10-23T13:00:42.715Z,51.01
2023-10-23T13:03:11.003Z,51.09
2023-10-23T13:05:40.149Z,50.81
2023-10-23T13:08:08.972Z,49.78
2023-10-23T13:10:36.993Z,50.05
2023-10-23T13:13:05.218Z,50.82
2023-10-23T13:15:33.313Z,50.80
2023-10-23T13:18:04.009Z,50.43
2023-10-23T13:21:28.364Z,50.73
2023-10-23T13:23:23.452Z,50.71
2023-10-23T13:26:05.971Z,50.91
2023-10-23T13:28:41.046Z,51.46
2023-10-23T13:31:09.520Z,52.35
2023-10-23T13:33:38.485Z,53.06
2023-10-23T13:36:10.322Z,53.61
2023-10-23T13:38:39.237Z,54.50
2023-10-23T13:41:07.586Z,55.51
2023-10-23T13:43:35.689Z,56.24
2023-10-23T13:46:06.960Z,57.14
2023-10-23T13:48:35.298Z,57.97
2023-10-23T13:51:03.761Z,59.19
2023-10-23T13:53:33.067Z,59.77
2023-10-23T13:56:01.260Z,60.40
2023-10-23T13:58:48.221Z,61.03
2023-10-23T14:01:19.796Z,61.77
2023-10-23T14:03:48.532Z,62.14
2023-10-23T14:06:19.373Z,62.89
2023-10-23T14:09:42.057Z,63.52
2023-10-23T14:11:59.121Z,64.43
2023-10-23T14:14:25.358Z,65.38
2023-10-23T14:16:56.322Z,66.21
2023-10-23T14:19:38.103Z,66.44
2023-10-23T14:22:11.378Z,66.05
2023-10-23T14:24:40.050Z,65.29
2023-10-23T14:27:08.577Z,65.28
2023-10-23T14:29:37.182Z,64.79
2023-10-23T14:32:05.765Z,64.64
2023-10-23T14:34:33.894Z,64.76
2023-10-23T14:37:02.174Z,64.69
2023-10-23T14:39:31.170Z,64.75
2023-10-23T14:41:59.077Z,65.20
2023-10-23T14:44:26.874Z,65.06
2023-10-23T14:46:55.195Z,65.43
2023-10-23T14:49:23.282Z,65.66
2023-10-23T14:51:52.685Z,66.00
2023-10-23T14:54:21.222Z,66.29
2023-10-23T14:56:51.384Z,66.24
2023-10-23T14:59:19.523Z,66.47
2023-10-23T15:01:47.628Z,67.09
2023-10-23T15:04:32.636Z,67.54
2023-10-23T15:07:01.864Z,67.38
2023-10-23T15:09:30.572Z,67.24
2023-10-23T15:11:58.765Z,67.60
2023-10-23T15:14:26.729Z,67.34
2023-10-23T15:16:55.812Z,67.29
2023-10-23T15:19:23.891Z,67.48
2023-10-23T15:21:52.070Z,67.95
2023-10-23T15:24:21.380Z,67.97
2023-10-23T15:26:49.758Z,68.63
2023-10-23T15:29:17.857Z,68.44
2023-10-23T15:31:46.295Z,68.99
2023-10-23T15:34:15.265Z,69.25
2023-10-23T15:36:43.546Z,69.99
2023-10-23T15:39:11.668Z,69.97
2023-10-23T15:41:39.819Z,70.13
2023-10-23T15:44:07.679Z,70.91
2023-10-23T15:46:38.103Z,71.77
2023-10-23T15:49:06.732Z,72.18
2023-10-23T15:51:35.049Z,72.60
2023-10-23T15:54:03.106Z,73.17
2023-10-23T15:56:31.320Z,73.60
2023-10-23T15:58:59.940Z,74.20
2023-10-23T16:01:29.352Z,74.59
2023-10-23T16:03:57.338Z,75.15
2023-10-23T16:06:25.083Z,76.11
2023-10-23T16:08:53.144Z,76.46
2023-10-23T16:11:23.340Z,76.77
2023-10-23T16:13:51.595Z,77.42
2023-10-23T16:16:19.682Z,78.23
2023-10-23T16:18:47.578Z,78.42
2023-10-23T16:21:16.754Z,78.83
2023-10-23T16:23:45.494Z,78.78
2023-10-23T16:26:13.701Z,79.26
2023-10-23T16:28:42.515Z,79.44
2023-10-23T16:31:15.453Z,80.13
2023-10-23T16:33:44.018Z,80.92
2023-10-23T16:36:12.365Z,80.24
2023-10-23T16:38:40.918Z,80.16
2023-10-23T16:41:09.045Z,80.61
2023-10-23T16:43:41.633Z,81.10
2023-10-23T16:46:13.208Z,81.87
2023-10-23T16:48:43.021Z,82.52
2023-10-23T16:51:11.331Z,83.07
2023-10-23T16:53:42.796Z,83.53
2023-10-23T16:56:10.664Z,83.91
2023-10-23T16:58:38.995Z,84.71
2023-10-23T17:01:08.079Z,84.91
2023-10-23T17:03:39.242Z,85.68
2023-10-23T17:06:10.787Z,86.12
2023-10-23T17:08:39.218Z,86.25
2023-10-23T17:11:08.502Z,86.68
2023-10-23T17:13:37.189Z,87.96
2023-10-23T17:16:05.552Z,87.29
2023-10-23T17:18:33.907Z,88.77
2023-10-23T17:21:04.300Z,88.93
2023-10-23T17:23:33.015Z,89.02
2023-10-23T17:26:02.164Z,88.54
2023-10-23T17:28:32.098Z,89.08
2023-10-23T17:31:00.826Z,89.67
2023-10-23T17:33:32.165Z,90.13
2023-10-23T17:36:01.135Z,89.28
2023-10-23T17:38:29.749Z,89.73
2023-10-23T17:40:58.182Z,90.79
2023-10-23T17:43:26.573Z,91.61
2023-10-23T17:45:55.392Z,92.18
2023-10-23T17:48:23.297Z,93.48
2023-10-23T17:50:52.437Z,94.46
2023-10-23T17:53:20.676Z,95.21
2023-10-23T17:55:48.578Z,95.69
2023-10-23T17:58:16.859Z,95.07
2023-10-23T18:00:45.950Z,96.31
2023-10-23T18:03:15.461Z,97.16
2023-10-23T18:05:43.805Z,96.95
2023-10-23T18:08:12.444Z,96.57
2023-10-23T18:10:41.576Z,96.55
2023-10-23T18:13:10.061Z,96.37
2023-10-23T18:15:38.338Z,96.33
2023-10-23T18:18:06.397Z,96.88
2023-10-23T18:20:34.693Z,96.77
2023-10-23T18:23:02.891Z,96.83
2023-10-23T18:25:31.844Z,97.64
2023-10-23T18:28:00.635Z,97.84
2023-10-23T18:30:32.009Z,98.17
2023-10-23T18:33:00.191Z,98.04
2023-10-23T18:35:28.504Z,97.78
2023-10-23T18:37:57.560Z,97.29
2023-10-23T18:40:26.285Z,97.42
2023-10-23T18:42:58.635Z,97.13
2023-10-23T18:45:26.996Z,97.13
2023-10-23T18:47:55.288Z,96.86
2023-10-23T18:50:23.748Z,96.82
2023-10-23T18:52:52.172Z,96.52
2023-10-23T18:55:21.324Z,96.96
2023-10-23T18:57:49.645Z,96.35
2023-10-23T19:00:18.307Z,97.32
2023-10-23T19:02:46.528Z,97.24
2023-10-23T19:05:15.056Z,98.07
2023-10-23T19:07:43.511Z,98.01
2023-10-23T19:10:11.848Z,98.11
2023-10-23T19:12:43.098Z,98.36
2023-10-23T19:15:11.530Z,98.63
2023-10-23T19:17:41.379Z,99.49
2023-10-23T19:20:11.052Z,99.60
2023-10-23T19:22:39.994Z,100.00
2023-10-23T19:25:11.020Z,100.00
2023-10-23T19:27:39.103Z,100.00
2023-10-23T19:30:12.376Z,100.00
2023-10-23T19:32:45.858Z,100.00
2023-10-23T19:35:16.815Z,100.00
2023-10-23T19:37:45.268Z,100.00
2023-10-23T19:40:14.071Z,100.00
2023-10-23T19:42:42.965Z,100.00
2023-10-23T19:45:11.348Z,100.00
2023-10-23T19:47:40.059Z,100.00
2023-10-23T19:50:10.684Z,100.00
2023-10-23T19:52:39.700Z,100.00
2023-10-23T19:55:45.824Z,100.00
2023-10-23T19:57:58.144Z,100.00
2023-10-23T20:00:26.549Z,100.00
2023-10-23T20:02:56.110Z,100.00
2023-10-23T20:05:28.786Z,100.00
2023-10-23T20:07:59.753Z,100.00
2023-10-23T20:10:32.108Z,100.00
2023-10-23T20:13:00.740Z,100.00
2023-10-23T20:15:30.714Z,100.00
2023-10-23T20:17:59.299Z,100.00
2023-10-23T20:20:27.845Z,100.00
2023-10-23T20:22:55.555Z,100.00
2023-10-23T20:25:23.794Z,100.00
2023-10-23T20:27:51.830Z,100.00
2023-10-23T20:30:20.055Z,100.00
2023-10-23T20:32:48.913Z,100.00
2023-10-23T20:35:17.224Z,100.00
2023-10-23T20:37:46.098Z,100.00
2023-10-23T20:40:14.563Z,100.00
2023-10-23T20:42:44.421Z,100.00
2023-10-23T20:45:14.704Z,100.00
2023-10-23T20:47:43.048Z,100.00
2023-10-23T20:50:12.006Z,100.00
2023-10-23T20:52:40.188Z,100.00
2023-10-23T20:55:08.868Z,100.00
2023-10-23T20:57:37.127Z,100.00
2023-10-23T21:00:07.933Z,100.00
2023-10-23T21:02:37.659Z,100.00
2023-10-23T21:05:06.893Z,100.00
2023-10-23T21:07:36.017Z,100.00
2023-10-23T21:10:04.394Z,100.00
2023-10-23T21:12:33.028Z,100.00
2023-10-23T21:15:01.060Z,100.00
2023-10-23T21:17:29.333Z,100.00
2023-10-23T21:19:57.701Z,100.00
2023-10-23T21:22:25.637Z,100.00
2023-10-23T21:24:54.110Z,100.00
2023-10-23T21:27:22.754Z,100.00
2023-10-23T21:29:50.943Z,100.00
2023-10-23T21:32:19.631Z,100.00
2023-10-23T21:34:47.871Z,100.00
2023-10-23T21:37:16.244Z,100.00
2023-10-23T21:39:44.565Z,100.00
2023-10-23T21:42:12.617Z,100.00
2023-10-23T21:44:41.282Z,100.00
2023-10-23T21:47:09.785Z,100.00
2023-10-23T21:49:38.276Z,100.00
2023-10-23T21:52:06.912Z,100.00
2023-10-23T21:54:35.343Z,100.00
2023-10-23T21:57:20.232Z,100.00
2023-10-23T21:59:51.575Z,100.00
2023-10-23T22:02:19.874Z,100.00
2023-10-23T22:04:48.495Z,100.00
2023-10-23T22:07:16.711Z,100.00
2023-10-23T22:09:44.986Z,100.00
2023-10-23T22:12:13.733Z,100.00
2023-10-23T22:14:42.669Z,100.00
2023-10-23T22:17:11.470Z,100.00
2023-10-23T22:19:39.656Z,100.00
2023-10-23T22:22:07.683Z,100.00
2023-10-23T22:24:36.033Z,100.00
2023-10-23T22:27:04.321Z,100.00
2023-10-23T22:29:32.522Z,100.00
2023-10-23T22:32:00.397Z,100.00
2023-10-23T22:34:29.162Z,100.00
2023-10-23T22:37:55.375Z,100.00
2023-10-23T22:39:45.602Z,100.00
2023-10-23T22:42:13.676Z,100.00
2023-10-23T22:44:42.476Z,100.00
2023-10-23T22:47:10.765Z,100.00
2023-10-23T22:49:38.990Z,100.00
2023-10-23T22:52:07.355Z,100.00
2023-10-23T22:54:35.854Z,100.00
2023-10-23T22:57:06.204Z,100.00
2023-10-23T22:59:34.969Z,100.00
2023-10-23T23:02:03.421Z,100.00
2023-10-23T23:04:31.994Z,100.00
2023-10-23T23:07:01.021Z,100.00
2023-10-23T23:09:30.320Z,100.00
2023-10-23T23:11:58.800Z,100.00
2023-10-23T23:14:26.773Z,100.00
2023-10-23T23:16:59.979Z,100.00
2023-10-23T23:19:30.881Z,100.00
2023-10-23T23:22:09.953Z,100.00
2023-10-23T23:24:41.003Z,100.00
2023-10-23T23:27:08.889Z,100.00
2023-10-23T23:29:37.011Z,100.00
2023-10-23T23:32:08.406Z,100.00
2023-10-23T23:34:37.924Z,100.00
2023-10-23T23:37:06.318Z,100.00
2023-10-23T23:39:34.361Z,100.00
2023-10-23T23:42:03.106Z,100.00
2023-10-23T23:44:31.344Z,100.00
2023-10-23T23:46:59.489Z,100.00
2023-10-23T23:49:29.039Z,100.00
2023-10-23T23:51:57.362Z,100.00
2023-10-23T23:54:25.563Z,100.00
2023-10-23T23:56:53.768Z,100.00
2023-10-23T23:59:21.898Z,100.00
